Terminal Aerodrome Forecast
Issued by NWS Miami, FL

Home | Current Version | Previous Version | Text Only | Print | Product List | Glossary On
Versions: 1 2 3 4 5 6 7 8 9 10 11 12 13 14 15 16 17 18 19 20 21 22 23 24 25 26 27 28 29 30 31 32 33 34 35 36 37 38 39 40 41 42 43 44 45 46 47 48 49 50
000
FTUS42 KMFL 250856 AAC
TAFPBI
TAF AMD
KPBI 250856Z 2509/2606 VRB03KT P6SM FEW015 SCT025 BKN035
      TEMPO 2509/2513 6SM BR SCT005 BKN010 BKN025
     FM251500 34007KT P6SM SCT030 SCT250
     FM260000 VRB03KT P6SM FEW250=

USA.gov is the U.S. government's official web portal to all federal, state and local government web resources and services.